Time;durP1;ratioP1;P1;durP2;ratioP2;P2;SDS_P1;SDS_P2;PMS_P1;PMS_P2;Temp;Humidity;BMP_temperature;BMP_pressure;BME280_temperature;BME280_humidity;BME280_pressure;Samples;Min_cycle;Max_cycle;Signal;HPM_P1;HPM_P2
2022/12/23 00:45:20;;;;;;;90.88;39.92;;;;;;;1.42;83.04;100845.97;6279219;22;20033;-88
2022/12/23 00:51:22;;;;;;;66.15;33.22;;;;;;;1.43;82.66;100843.25;6326933;22;20042;-88
2022/12/23 00:53:50;;;;;;;;;;;;;;;1.54;82.62;100857.59;6272447;22;20101;-87
2022/12/23 00:56:21;;;;;;;79.78;33.55;;;;;;;1.15;82.70;100790.34;6298753;22;19890;-88
2022/12/23 00:58:49;;;;;;;78.65;35.85;;;;;;;1.43;82.57;100826.50;6299642;22;20041;-86
2022/12/23 01:07:27;;;;;;;72.10;35.30;;;;;;;1.66;81.92;100841.78;6301162;22;20042;-87
2022/12/23 01:10:32;;;;;;;82.07;37.53;;;;;;;1.28;82.48;100804.47;6304945;22;20090;-88
2022/12/23 01:13:01;;;;;;;84.35;38.92;;;;;;;1.22;83.36;100820.78;6294228;22;20039;-87
2022/12/23 01:15:33;;;;;;;88.85;40.08;;;;;;;1.08;83.70;100818.13;6271960;22;20019;-88
2022/12/23 01:18:00;;;;;;;83.22;40.45;;;;;;;1.08;83.65;100824.28;6299965;22;20000;-88
2022/12/23 01:20:27;;;;;;;80.05;40.20;;;;;;;1.13;83.64;100816.91;6273463;22;20026;-87
2022/12/23 01:23:04;;;;;;;78.93;39.00;;;;;;;1.14;82.96;100797.41;6267718;22;20062;-90
2022/12/23 01:25:35;;;;;;;71.90;35.63;;;;;;;1.33;82.99;100826.22;6297480;22;20003;-89
2022/12/23 01:28:16;;;;;;;79.95;35.90;;;;;;;1.08;82.61;100767.81;6325401;22;20031;-89
2022/12/23 01:30:57;;;;;;;78.15;35.95;;;;;;;1.30;82.53;100799.94;6250145;22;20013;-90
2022/12/23 01:33:27;;;;;;;65.07;35.30;;;;;;;1.27;82.18;100789.53;6323870;22;20006;-88
2022/12/23 01:36:29;;;;;;;73.07;36.60;;;;;;;1.55;81.66;100811.63;6298101;22;20081;-90
2022/12/23 01:39:10;;;;;;;76.38;36.88;;;;;;;1.35;81.33;100768.69;6330099;22;20017;-88
2022/12/23 01:45:02;;;;;;;71.35;35.75;;;;;;;1.53;81.25;100806.41;6326273;22;20030;-87
2022/12/23 01:47:38;;;;;;;69.05;35.67;;;;;;;1.30;81.18;100757.53;6327241;22;20019;-87
2022/12/23 01:50:46;;;;;;;79.68;36.55;;;;;;;1.64;81.09;100805.72;6308626;22;20011;-87
2022/12/23 01:53:47;;;;;;;74.65;35.95;;;;;;;1.66;80.56;100807.31;6331424;22;20071;-88
2022/12/23 01:56:32;;;;;;;76.85;36.33;;;;;;;1.52;81.29;100803.84;6275266;22;20015;-89
2022/12/23 02:03:41;;;;;;;85.15;37.85;;;;;;;1.14;81.46;100756.84;6303298;22;20056;-89
2022/12/23 02:05:31;;;;;;;87.75;38.65;;;;;;;1.27;81.80;100778.94;6329105;22;20046;-89
2022/12/23 02:11:33;;;;;;;78.03;38.63;;;;;;;1.20;81.53;100749.34;6303384;22;20093;-88
2022/12/23 02:17:57;;;;;;;79.20;36.10;;;;;;;1.43;81.63;100792.91;6309563;22;20124;-88
2022/12/23 02:21:00;;;;;;;77.65;38.08;;;;;;;1.42;81.47;100795.66;6330432;22;20091;-89
2022/12/23 02:24:13;;;;;;;86.03;38.17;;;;;;;1.41;81.38;100788.66;6330001;22;20023;-89
2022/12/23 02:27:11;;;;;;;78.68;38.78;;;;;;;1.30;81.84;100793.78;6302484;22;20003;-88
2022/12/23 02:30:05;;;;;;;78.35;39.63;;;;;;;1.21;82.30;100796.06;6294718;22;19995;-89
2022/12/23 02:33:31;;;;;;;82.93;38.20;;;;;;;1.22;82.02;100796.94;6300327;22;20027;-86
2022/12/23 02:43:19;;;;;;;81.85;37.63;;;;;;;1.14;82.13;100793.91;6267657;23;20037;-87
2022/12/23 02:46:19;;;;;;;92.10;41.63;;;;;;;1.10;82.45;100789.75;6266271;23;20019;-87
2022/12/23 02:48:50;;;;;;;90.10;41.42;;;;;;;0.88;82.57;100767.28;6202113;23;20013;-88
2022/12/23 02:51:33;;;;;;;93.85;43.50;;;;;;;0.94;82.39;100764.25;6197080;23;20016;-87
2022/12/23 02:54:31;;;;;;;107.85;46.72;;;;;;;1.10;82.46;100787.97;6180575;23;20025;-87
2022/12/23 02:56:59;;;;;;;107.40;46.92;;;;;;;0.91;81.98;100759.13;6176252;23;20007;-85
2022/12/23 02:59:42;;;;;;;111.65;45.53;;;;;;;0.97;82.09;100774.63;6176157;23;20013;-89
2022/12/23 03:02:32;;;;;;;102.90;46.78;;;;;;;0.73;82.52;100744.44;6180517;23;20009;-87
2022/12/23 03:05:19;;;;;;;118.80;49.03;;;;;;;0.87;82.72;100775.28;6150897;23;20027;-89
2022/12/23 03:07:54;;;;;;;107.82;46.22;;;;;;;0.80;82.63;100762.47;6206532;23;20009;-89
2022/12/23 03:11:16;;;;;;;114.28;45.25;;;;;;;0.72;82.65;100750.66;6164827;23;20101;-87
2022/12/23 03:14:14;;;;;;;97.57;44.00;;;;;;;0.65;82.69;100742.22;6090883;23;20014;-88
2022/12/23 03:17:18;;;;;;;107.90;44.15;;;;;;;0.66;83.32;100759.84;6248262;22;20021;-88
2022/12/23 03:20:19;;;;;;;99.55;42.95;;;;;;;0.61;82.86;100736.31;6297915;22;20011;-90
2022/12/23 03:23:22;;;;;;;108.97;44.58;;;;;;;0.87;82.60;100781.47;6269129;22;20009;-90
2022/12/23 03:26:16;;;;;;;108.50;45.20;;;;;;;0.58;82.91;100744.41;6236000;23;20055;-87
2022/12/23 03:28:49;;;;;;;114.05;46.92;;;;;;;0.67;82.80;100752.75;6213314;23;20067;-89
2022/12/23 03:31:21;;;;;;;112.45;48.40;;;;;;;0.99;82.57;100772.75;6206647;23;20012;-88
2022/12/23 03:34:09;;;;;;;117.70;48.40;;;;;;;0.84;82.36;100739.28;6209640;23;20013;-89
2022/12/23 03:36:46;;;;;;;114.10;46.63;;;;;;;0.91;82.05;100737.94;6210418;23;20012;-87
2022/12/23 03:39:33;;;;;;;107.43;46.42;;;;;;;0.78;81.60;100737.03;6200720;22;20012;-88
2022/12/23 03:45:50;;;;;;;96.35;44.05;;;;;;;0.84;81.65;100737.50;6299373;22;20019;-88
2022/12/23 03:48:50;;;;;;;104.63;43.28;;;;;;;0.91;81.87;100753.84;6280435;22;20046;-88
2022/12/23 03:51:20;;;;;;;102.35;44.90;;;;;;;0.83;81.53;100742.88;6246092;22;20012;-87
2022/12/23 03:53:54;;;;;;;102.07;45.35;;;;;;;0.66;81.66;100724.59;6270794;22;20011;-89
2022/12/23 03:56:48;;;;;;;97.00;43.42;;;;;;;0.62;81.90;100737.16;6246670;22;20022;-86
2022/12/23 03:59:24;;;;;;;95.60;42.95;;;;;;;0.73;82.06;100755.00;6296836;22;20015;-89
2022/12/23 04:02:10;;;;;;;93.07;42.05;;;;;;;0.86;82.05;100766.50;6265458;22;20014;-88
2022/12/23 04:04:45;;;;;;;99.95;42.55;;;;;;;0.76;81.98;100757.47;6325555;22;20007;-88
2022/12/23 04:07:25;;;;;;;95.10;42.17;;;;;;;0.77;81.90;100754.72;6324119;22;20063;-89
2022/12/23 04:10:26;;;;;;;93.18;40.88;;;;;;;0.80;81.35;100737.81;6302987;22;20003;-88
2022/12/23 05:06:18;;;;;;;112.78;44.95;;;;;;;0.69;80.64;100761.44;6322437;22;20035;-86
2022/12/23 05:08:53;;;;;;;111.03;45.03;;;;;;;0.54;80.75;100736.75;6322963;22;20026;-88
2022/12/23 05:11:25;;;;;;;104.00;45.30;;;;;;;0.68;80.83;100765.88;6320542;22;20072;-88
2022/12/23 05:13:51;;;;;;;109.82;45.13;;;;;;;0.61;80.79;100752.19;6320063;22;20023;-88
2022/12/23 05:16:30;;;;;;;105.60;45.42;;;;;;;0.62;80.90;100761.81;6326506;22;20006;-88
2022/12/23 05:19:18;;;;;;;100.45;43.35;;;;;;;0.60;80.78;100737.22;6328124;22;20082;-90
2022/12/23 05:21:55;;;;;;;100.00;42.65;;;;;;;0.79;80.83;100771.34;6326499;22;20018;-91
2022/12/23 05:24:48;;;;;;;97.93;41.97;;;;;;;0.73;80.36;100747.06;6323557;22;20007;-87
2022/12/23 05:27:15;;;;;;;99.35;41.33;;;;;;;0.97;80.24;100769.34;6325111;22;20007;-87
2022/12/23 05:33:08;;;;;;;88.57;40.65;;;;;;;1.28;79.46;100770.03;6322533;22;20009;-85
2022/12/23 05:35:33;;;;;;;85.07;41.45;;;;;;;1.29;79.03;100750.56;6323131;22;20023;-84
2022/12/23 05:38:03;;;;;;;92.57;40.65;;;;;;;1.43;78.98;100762.91;6323641;22;20018;-90
2022/12/23 05:40:44;;;;;;;76.53;36.47;;;;;;;1.46;78.03;100742.34;6325524;22;20401;-88
2022/12/23 05:44:17;;;;;;;91.55;38.70;;;;;;;1.94;77.87;100791.38;6308321;22;20060;-89
2022/12/23 05:46:46;;;;;;;87.05;38.35;;;;;;;1.86;77.53;100766.22;6326511;22;20021;-88
2022/12/23 05:49:21;;;;;;;80.43;38.63;;;;;;;2.21;77.20;100794.81;6328700;22;20010;-89
2022/12/23 05:52:08;;;;;;;88.78;39.70;;;;;;;2.14;76.79;100785.59;6321966;22;20007;-88
2022/12/23 05:54:50;;;;;;;75.05;36.58;;;;;;;2.13;76.64;100753.84;6322375;22;20014;-88
2022/12/23 05:58:18;;;;;;;74.35;36.25;;;;;;;2.58;75.68;100797.63;6326499;22;19999;-87
2022/12/23 06:01:19;;;;;;;70.65;35.25;;;;;;;2.73;75.35;100801.00;6284403;22;20041;-86
2022/12/23 06:04:23;;;;;;;88.10;38.28;;;;;;;2.65;74.94;100795.41;6301875;22;20015;-88
2022/12/23 06:07:39;;;;;;;86.93;39.53;;;;;;;2.62;74.87;100763.75;6326576;22;20022;-89
2022/12/23 06:10:28;;;;;;;108.10;42.95;;;;;;;2.63;74.58;100763.63;6300852;22;20011;-86
2022/12/23 06:13:11;;;;;;;109.65;45.30;;;;;;;3.02;73.99;100801.63;6303603;22;20007;-87
2022/12/23 06:15:39;;;;;;;95.00;46.10;;;;;;;2.92;73.59;100766.03;6329042;22;20002;-87
2022/12/23 06:18:24;;;;;;;;;;;;;;;3.20;73.24;100802.09;6308671;22;20029;-89
2022/12/23 06:21:13;;;;;;;107.57;48.97;;;;;;;3.10;72.84;100767.38;6327659;22;19943;-89
2022/12/23 06:24:06;;;;;;;114.68;48.70;;;;;;;3.36;72.64;100785.91;6353446;22;20036;-86
2022/12/23 06:27:29;;;;;;;117.95;49.65;;;;;;;3.38;72.08;100781.34;6331976;22;20027;-90
2022/12/23 06:30:43;;;;;;;115.03;49.00;;;;;;;3.21;71.80;100771.94;6264469;22;20028;-88
2022/12/23 06:33:35;;;;;;;104.97;48.78;;;;;;;3.33;71.35;100776.34;6324344;22;20063;-85
2022/12/23 06:36:08;;;;;;;117.15;50.40;;;;;;;3.45;71.80;100789.72;6350512;22;20102;-85
2022/12/23 06:38:39;;;;;;;113.28;51.63;;;;;;;3.72;71.47;100797.47;6288784;22;20018;-87
2022/12/23 06:41:07;;;;;;;106.65;51.22;;;;;;;3.73;70.87;100780.56;6290556;22;20391;-87
2022/12/23 06:43:36;;;;;;;107.28;51.53;;;;;;;4.21;69.98;100817.72;6317740;22;20003;-86
2022/12/23 06:46:13;;;;;;;110.50;50.65;;;;;;;4.32;69.51;100801.81;6314443;22;20007;-82
2022/12/23 06:49:01;;;;;;;120.43;49.80;;;;;;;4.52;68.49;100807.41;6311847;22;20026;-85
2022/12/23 06:54:52;;;;;;;106.40;49.92;;;;;;;4.81;66.58;100798.00;6325049;22;20177;-88
2022/12/23 06:57:26;;;;;;;108.32;50.83;;;;;;;4.90;66.34;100800.94;6319839;22;20011;-86
2022/12/23 07:00:10;;;;;;;112.32;53.65;;;;;;;5.07;65.60;100797.75;6291113;22;20008;-86
2022/12/23 07:02:48;;;;;;;119.90;53.88;;;;;;;4.85;65.70;100759.50;6315822;22;20003;-87
2022/12/23 10:10:04;;;;;;;54.83;37.47;;;;;;;17.25;35.07;100648.97;6350301;22;20085;-83
2022/12/23 21:00:13;;;;;;;99.32;47.15;;;;;;;6.18;71.24;100778.06;6268482;22;20024;31
2022/12/23 21:49:04;;;;;;;97.20;48.60;;;;;;;5.84;71.16;100714.16;6226611;22;20016;-91
2022/12/23 21:52:23;;;;;;;106.70;50.30;;;;;;;5.88;71.47;100731.63;6354782;22;20092;-92
2022/12/23 21:55:14;;;;;;;104.60;48.85;;;;;;;5.64;71.60;100716.69;6356489;22;20014;-92
